Terminal Aerodrome Forecast
Issued by NWS Mt. Holly, NJ

Home | Current Version | Previous Version | Text Only | Print | Product List | Glossary On
Versions: 1 2 3 4 5 6 7 8 9 10 11 12 13
000
FTUS41 KPHI 201100
TAFTTN
TAF
KTTN 201124Z 2012/2112 VRB03KT P6SM BKN040 OVC080
     FM201400 13004KT P6SM SCT040 BKN080
     FM201800 17007KT P6SM SCT050 BKN250
     FM210000 VRB03KT P6SM SCT040 BKN120=

USA.gov is the U.S. government's official web portal to all federal, state and local government web resources and services.